sensor_id;sensor_type;location;lat;lon;timestamp;pressure;altitude;pressure_sealevel;temperature;humidity
64616;BME280;51027;42.162;24.754;2023-04-30T00:01:53;99452.59;;;14.15;76.93
64616;BME280;51027;42.162;24.754;2023-04-30T00:04:19;99455.06;;;14.18;76.82
64616;BME280;51027;42.162;24.754;2023-04-30T00:06:44;99461.91;;;14.22;76.67
64616;BME280;51027;42.162;24.754;2023-04-30T00:09:10;99452.16;;;14.22;76.83
64616;BME280;51027;42.162;24.754;2023-04-30T00:11:36;99451.66;;;14.16;78.16
64616;BME280;51027;42.162;24.754;2023-04-30T00:14:01;99456.84;;;14.17;78.24
64616;BME280;51027;42.162;24.754;2023-04-30T00:16:26;99447.00;;;14.19;78.10
64616;BME280;51027;42.162;24.754;2023-04-30T00:18:52;99447.09;;;14.18;77.96
64616;BME280;51027;42.162;24.754;2023-04-30T00:21:17;99443.59;;;14.17;78.80
64616;BME280;51027;42.162;24.754;2023-04-30T00:23:43;99451.13;;;14.25;78.17
64616;BME280;51027;42.162;24.754;2023-04-30T00:26:08;99452.16;;;14.22;78.83
64616;BME280;51027;42.162;24.754;2023-04-30T00:28:34;99456.09;;;14.15;79.25
64616;BME280;51027;42.162;24.754;2023-04-30T00:30:59;99454.06;;;14.04;79.50
64616;BME280;51027;42.162;24.754;2023-04-30T00:33:24;99460.81;;;14.10;79.00
64616;BME280;51027;42.162;24.754;2023-04-30T00:35:50;99460.44;;;14.16;79.16
64616;BME280;51027;42.162;24.754;2023-04-30T00:38:16;99459.81;;;14.27;78.97
64616;BME280;51027;42.162;24.754;2023-04-30T00:40:42;99460.09;;;14.22;79.22
64616;BME280;51027;42.162;24.754;2023-04-30T00:43:07;99458.41;;;14.21;78.74
64616;BME280;51027;42.162;24.754;2023-04-30T00:45:33;99461.63;;;14.26;78.83
64616;BME280;51027;42.162;24.754;2023-04-30T00:47:58;99455.81;;;14.20;79.13
64616;BME280;51027;42.162;24.754;2023-04-30T00:50:24;99451.66;;;14.16;79.98
64616;BME280;51027;42.162;24.754;2023-04-30T00:52:50;99447.09;;;14.18;79.51
64616;BME280;51027;42.162;24.754;2023-04-30T00:55:16;99439.97;;;14.04;79.74
64616;BME280;51027;42.162;24.754;2023-04-30T00:57:41;99422.72;;;13.97;79.65
64616;BME280;51027;42.162;24.754;2023-04-30T01:00:07;99444.38;;;14.19;79.34
64616;BME280;51027;42.162;24.754;2023-04-30T01:02:36;99442.34;;;14.08;79.58
64616;BME280;51027;42.162;24.754;2023-04-30T01:05:03;99436.66;;;14.00;79.19
64616;BME280;51027;42.162;24.754;2023-04-30T01:07:29;99438.50;;;13.98;79.57
64616;BME280;51027;42.162;24.754;2023-04-30T01:09:55;99421.16;;;14.08;79.12
64616;BME280;51027;42.162;24.754;2023-04-30T01:17:57;99437.03;;;14.24;78.73
64616;BME280;51027;42.162;24.754;2023-04-30T01:20:28;99440.53;;;14.25;78.66
64616;BME280;51027;42.162;24.754;2023-04-30T01:28:22;99445.16;;;14.21;76.66
64616;BME280;51027;42.162;24.754;2023-04-30T01:30:49;99441.66;;;14.21;76.50
64616;BME280;51027;42.162;24.754;2023-04-30T01:33:15;99441.72;;;14.19;76.34
64616;BME280;51027;42.162;24.754;2023-04-30T01:35:51;99446.94;;;14.21;75.46
64616;BME280;51027;42.162;24.754;2023-04-30T01:44:09;99446.75;;;14.24;72.55
64616;BME280;51027;42.162;24.754;2023-04-30T01:46:36;99401.13;;;13.89;68.63
64616;BME280;51027;42.162;24.754;2023-04-30T01:49:14;99432.16;;;14.17;69.32
64616;BME280;51027;42.162;24.754;2023-04-30T01:51:44;99440.09;;;14.17;69.38
64616;BME280;51027;42.162;24.754;2023-04-30T01:54:37;99442.75;;;14.17;67.56
64616;BME280;51027;42.162;24.754;2023-04-30T01:57:06;99430.66;;;14.12;68.91
64616;BME280;51027;42.162;24.754;2023-04-30T01:59:34;99441.41;;;14.09;69.75
64616;BME280;51027;42.162;24.754;2023-04-30T02:02:01;99433.72;;;14.05;71.08
64616;BME280;51027;42.162;24.754;2023-04-30T02:04:26;99429.06;;;13.94;70.73
64616;BME280;51027;42.162;24.754;2023-04-30T02:06:52;99438.69;;;13.95;70.95
64616;BME280;51027;42.162;24.754;2023-04-30T02:09:17;99432.47;;;13.96;71.12
64616;BME280;51027;42.162;24.754;2023-04-30T02:11:43;99433.41;;;13.95;71.35
64616;BME280;51027;42.162;24.754;2023-04-30T02:14:08;99430.19;;;13.90;71.85
64616;BME280;51027;42.162;24.754;2023-04-30T02:16:34;99436.81;;;13.97;71.43
64616;BME280;51027;42.162;24.754;2023-04-30T02:18:59;99446.41;;;13.84;72.00
64616;BME280;51027;42.162;24.754;2023-04-30T02:21:24;99438.72;;;13.79;72.15
64616;BME280;51027;42.162;24.754;2023-04-30T02:23:51;99450.00;;;13.83;71.06
64616;BME280;51027;42.162;24.754;2023-04-30T02:26:16;99417.38;;;13.67;70.50
64616;BME280;51027;42.162;24.754;2023-04-30T02:28:42;99442.63;;;13.88;70.27
64616;BME280;51027;42.162;24.754;2023-04-30T02:31:07;99443.00;;;13.82;70.38
64616;BME280;51027;42.162;24.754;2023-04-30T02:33:33;99436.13;;;13.78;69.86
64616;BME280;51027;42.162;24.754;2023-04-30T02:36:01;99443.13;;;13.79;69.35
64616;BME280;51027;42.162;24.754;2023-04-30T02:38:27;99443.47;;;13.89;69.43
64616;BME280;51027;42.162;24.754;2023-04-30T02:40:52;99443.59;;;13.71;69.70
64616;BME280;51027;42.162;24.754;2023-04-30T02:43:17;99429.84;;;13.65;71.42
64616;BME280;51027;42.162;24.754;2023-04-30T02:45:43;99435.03;;;13.66;72.88
64616;BME280;51027;42.162;24.754;2023-04-30T02:48:08;99433.44;;;13.64;74.65
64616;BME280;51027;42.162;24.754;2023-04-30T02:50:33;99423.13;;;13.59;75.41
64616;BME280;51027;42.162;24.754;2023-04-30T02:52:59;99431.97;;;13.58;76.49
64616;BME280;51027;42.162;24.754;2023-04-30T02:55:24;99431.47;;;13.51;77.86
64616;BME280;51027;42.162;24.754;2023-04-30T02:57:50;99432.06;;;13.57;77.72
64616;BME280;51027;42.162;24.754;2023-04-30T03:00:15;99436.66;;;13.53;78.41
64616;BME280;51027;42.162;24.754;2023-04-30T03:02:42;99429.50;;;13.39;79.44
64616;BME280;51027;42.162;24.754;2023-04-30T03:05:07;99424.00;;;13.26;79.39
64616;BME280;51027;42.162;24.754;2023-04-30T03:07:33;99436.91;;;13.33;78.47
64616;BME280;51027;42.162;24.754;2023-04-30T03:09:58;99432.75;;;13.29;77.45
64616;BME280;51027;42.162;24.754;2023-04-30T03:12:23;99437.16;;;13.28;77.54
64616;BME280;51027;42.162;24.754;2023-04-30T03:14:49;99445.13;;;13.11;77.46
64616;BME280;51027;42.162;24.754;2023-04-30T03:17:14;99450.91;;;13.19;76.88
64616;BME280;51027;42.162;24.754;2023-04-30T03:19:40;99448.44;;;13.14;77.13
64616;BME280;51027;42.162;24.754;2023-04-30T03:22:06;99450.31;;;13.12;77.66
64616;BME280;51027;42.162;24.754;2023-04-30T03:24:31;99450.06;;;13.17;78.32
64616;BME280;51027;42.162;24.754;2023-04-30T03:26:57;99404.44;;;12.97;78.28
64616;BME280;51027;42.162;24.754;2023-04-30T03:29:22;99441.09;;;13.21;78.71
64616;BME280;51027;42.162;24.754;2023-04-30T03:31:47;99430.97;;;13.12;79.37
64616;BME280;51027;42.162;24.754;2023-04-30T03:34:13;99462.75;;;13.27;79.06
64616;BME280;51027;42.162;24.754;2023-04-30T03:36:38;99458.00;;;13.17;79.55
64616;BME280;51027;42.162;24.754;2023-04-30T03:39:04;99465.94;;;13.17;79.18
64616;BME280;51027;42.162;24.754;2023-04-30T03:41:29;99474.19;;;13.28;78.95
64616;BME280;51027;42.162;24.754;2023-04-30T03:43:55;99464.88;;;13.21;78.43
64616;BME280;51027;42.162;24.754;2023-04-30T03:46:20;99473.41;;;13.26;79.53
64616;BME280;51027;42.162;24.754;2023-04-30T03:48:46;99483.22;;;13.24;79.13
64616;BME280;51027;42.162;24.754;2023-04-30T03:51:11;99490.94;;;13.29;78.66
64616;BME280;51027;42.162;24.754;2023-04-30T03:53:36;99482.28;;;13.25;77.76
64616;BME280;51027;42.162;24.754;2023-04-30T03:56:02;99483.13;;;13.25;77.27
64616;BME280;51027;42.162;24.754;2023-04-30T03:58:28;99474.97;;;13.30;77.21
64616;BME280;51027;42.162;24.754;2023-04-30T04:00:54;99480.66;;;13.22;78.06
64616;BME280;51027;42.162;24.754;2023-04-30T04:03:20;99491.25;;;13.22;78.06
64616;BME280;51027;42.162;24.754;2023-04-30T04:05:46;99471.41;;;13.14;77.55
64616;BME280;51027;42.162;24.754;2023-04-30T04:08:11;99481.19;;;13.29;76.85
64616;BME280;51027;42.162;24.754;2023-04-30T04:10:37;99494.44;;;13.29;77.79
64616;BME280;51027;42.162;24.754;2023-04-30T04:13:04;99486.03;;;13.21;78.45
64616;BME280;51027;42.162;24.754;2023-04-30T04:15:30;99494.16;;;13.34;78.69
64616;BME280;51027;42.162;24.754;2023-04-30T04:17:56;99507.31;;;13.35;78.73
64616;BME280;51027;42.162;24.754;2023-04-30T04:20:21;99506.00;;;13.26;79.22
64616;BME280;51027;42.162;24.754;2023-04-30T04:22:46;99488.78;;;13.19;78.92
64616;BME280;51027;42.162;24.754;2023-04-30T04:25:12;99497.75;;;13.33;78.24
64616;BME280;51027;42.162;24.754;2023-04-30T04:27:38;99509.59;;;13.25;78.92
64616;BME280;51027;42.162;24.754;2023-04-30T04:30:03;99490.56;;;13.19;79.67
64616;BME280;51027;42.162;24.754;2023-04-30T04:32:29;99512.28;;;13.41;78.20
64616;BME280;51027;42.162;24.754;2023-04-30T04:34:57;99510.41;;;13.43;77.55
64616;BME280;51027;42.162;24.754;2023-04-30T04:37:22;99502.16;;;13.49;77.10
64616;BME280;51027;42.162;24.754;2023-04-30T04:39:47;99497.53;;;13.53;76.30
64616;BME280;51027;42.162;24.754;2023-04-30T04:42:14;99502.91;;;13.51;76.10
64616;BME280;51027;42.162;24.754;2023-04-30T04:44:41;99496.59;;;13.54;75.43
64616;BME280;51027;42.162;24.754;2023-04-30T04:47:07;99506.16;;;13.72;74.59
64616;BME280;51027;42.162;24.754;2023-04-30T04:49:32;99502.50;;;14.06;74.09
64616;BME280;51027;42.162;24.754;2023-04-30T04:51:58;99506.50;;;13.98;75.22
64616;BME280;51027;42.162;24.754;2023-04-30T04:54:23;99496.53;;;14.03;76.06
64616;BME280;51027;42.162;24.754;2023-04-30T04:56:49;99510.44;;;14.22;76.29
64616;BME280;51027;42.162;24.754;2023-04-30T04:59:16;99488.19;;;14.25;75.18
64616;BME280;51027;42.162;24.754;2023-04-30T05:01:42;99512.81;;;14.27;74.55
64616;BME280;51027;42.162;24.754;2023-04-30T05:04:07;99498.56;;;13.98;74.02
64616;BME280;51027;42.162;24.754;2023-04-30T05:06:33;99523.75;;;14.21;72.88
64616;BME280;51027;42.162;24.754;2023-04-30T05:08:59;99520.66;;;14.28;73.39
64616;BME280;51027;42.162;24.754;2023-04-30T05:11:24;99516.91;;;14.48;71.67
64616;BME280;51027;42.162;24.754;2023-04-30T05:13:50;99498.47;;;14.61;70.91
64616;BME280;51027;42.162;24.754;2023-04-30T05:16:15;99514.22;;;14.64;70.98
64616;BME280;51027;42.162;24.754;2023-04-30T05:18:41;99523.91;;;14.79;68.94
64616;BME280;51027;42.162;24.754;2023-04-30T05:21:06;99523.47;;;15.01;68.40
64616;BME280;51027;42.162;24.754;2023-04-30T05:23:32;99510.16;;;15.03;68.51
64616;BME280;51027;42.162;24.754;2023-04-30T05:25:57;99510.19;;;14.87;68.31
64616;BME280;51027;42.162;24.754;2023-04-30T05:28:22;99518.97;;;15.03;68.55
64616;BME280;51027;42.162;24.754;2023-04-30T05:30:48;99523.91;;;15.23;68.79
64616;BME280;51027;42.162;24.754;2023-04-30T05:33:13;99515.91;;;15.09;69.28
64616;BME280;51027;42.162;24.754;2023-04-30T05:35:39;99521.91;;;15.27;69.31
64616;BME280;51027;42.162;24.754;2023-04-30T05:38:04;99516.72;;;15.54;68.80
64616;BME280;51027;42.162;24.754;2023-04-30T05:40:31;99525.22;;;15.73;68.66
64616;BME280;51027;42.162;24.754;2023-04-30T05:42:56;99513.22;;;15.68;68.65
64616;BME280;51027;42.162;24.754;2023-04-30T05:45:23;99522.94;;;15.81;68.48
64616;BME280;51027;42.162;24.754;2023-04-30T05:47:48;99522.56;;;15.88;68.05
64616;BME280;51027;42.162;24.754;2023-04-30T05:50:13;99528.22;;;16.10;66.55
64616;BME280;51027;42.162;24.754;2023-04-30T05:52:39;99511.91;;;16.02;68.19
64616;BME280;51027;42.162;24.754;2023-04-30T05:55:05;99528.84;;;16.13;67.65
64616;BME280;51027;42.162;24.754;2023-04-30T05:57:30;99530.47;;;16.16;65.53
64616;BME280;51027;42.162;24.754;2023-04-30T05:59:56;99519.13;;;16.00;66.75
64616;BME280;51027;42.162;24.754;2023-04-30T06:02:21;99502.50;;;15.69;68.28
64616;BME280;51027;42.162;24.754;2023-04-30T06:04:47;99534.31;;;15.98;68.54
64616;BME280;51027;42.162;24.754;2023-04-30T06:07:12;99532.72;;;16.22;68.61
64616;BME280;51027;42.162;24.754;2023-04-30T06:09:37;99534.28;;;16.12;67.85
64616;BME280;51027;42.162;24.754;2023-04-30T06:12:03;99518.09;;;16.29;66.23
64616;BME280;51027;42.162;24.754;2023-04-30T06:14:29;99541.25;;;16.54;65.19
64616;BME280;51027;42.162;24.754;2023-04-30T06:16:55;99543.72;;;16.30;65.20
64616;BME280;51027;42.162;24.754;2023-04-30T06:19:20;99533.94;;;16.58;63.94
64616;BME280;51027;42.162;24.754;2023-04-30T06:21:46;99538.16;;;16.75;63.78
64616;BME280;51027;42.162;24.754;2023-04-30T06:24:11;99538.94;;;16.62;65.05
64616;BME280;51027;42.162;24.754;2023-04-30T06:26:36;99539.53;;;15.99;68.34
64616;BME280;51027;42.162;24.754;2023-04-30T06:29:02;99536.03;;;16.53;66.75
64616;BME280;51027;42.162;24.754;2023-04-30T06:31:27;99537.41;;;16.73;65.68
64616;BME280;51027;42.162;24.754;2023-04-30T06:33:53;99538.66;;;16.67;66.00
64616;BME280;51027;42.162;24.754;2023-04-30T06:36:18;99534.13;;;16.82;65.13
64616;BME280;51027;42.162;24.754;2023-04-30T06:38:45;99530.31;;;16.59;66.86
64616;BME280;51027;42.162;24.754;2023-04-30T06:41:14;99538.19;;;16.60;67.11
64616;BME280;51027;42.162;24.754;2023-04-30T06:43:40;99527.44;;;16.76;67.20
64616;BME280;51027;42.162;24.754;2023-04-30T06:46:07;99532.66;;;17.03;66.87
64616;BME280;51027;42.162;24.754;2023-04-30T06:48:32;99513.63;;;17.22;66.27
64616;BME280;51027;42.162;24.754;2023-04-30T06:50:58;99525.69;;;17.27;66.20
64616;BME280;51027;42.162;24.754;2023-04-30T06:53:24;99525.75;;;17.13;66.39
64616;BME280;51027;42.162;24.754;2023-04-30T06:55:50;99515.94;;;17.26;66.40
64616;BME280;51027;42.162;24.754;2023-04-30T06:58:16;99516.06;;;17.25;66.60
64616;BME280;51027;42.162;24.754;2023-04-30T07:00:45;99515.63;;;17.44;65.77
64616;BME280;51027;42.162;24.754;2023-04-30T07:03:10;99522.88;;;17.04;65.63
64616;BME280;51027;42.162;24.754;2023-04-30T07:05:35;99509.97;;;17.61;65.33
64616;BME280;51027;42.162;24.754;2023-04-30T07:08:02;99520.19;;;16.78;66.00
64616;BME280;51027;42.162;24.754;2023-04-30T07:10:28;99499.88;;;16.90;65.47
64616;BME280;51027;42.162;24.754;2023-04-30T07:12:54;99495.19;;;17.06;64.41
64616;BME280;51027;42.162;24.754;2023-04-30T07:15:19;99514.69;;;17.58;63.50
64616;BME280;51027;42.162;24.754;2023-04-30T07:17:45;99510.34;;;17.31;64.53
64616;BME280;51027;42.162;24.754;2023-04-30T07:20:11;99512.56;;;17.37;62.97
64616;BME280;51027;42.162;24.754;2023-04-30T07:22:39;99507.31;;;17.61;61.97
64616;BME280;51027;42.162;24.754;2023-04-30T07:25:04;99510.84;;;17.74;61.16
64616;BME280;51027;42.162;24.754;2023-04-30T07:27:30;99515.72;;;17.80;62.55
64616;BME280;51027;42.162;24.754;2023-04-30T07:29:55;99510.97;;;18.09;61.50
64616;BME280;51027;42.162;24.754;2023-04-30T07:32:21;99498.94;;;18.28;60.73
64616;BME280;51027;42.162;24.754;2023-04-30T07:34:46;99500.47;;;17.82;60.73
64616;BME280;51027;42.162;24.754;2023-04-30T07:37:13;99507.28;;;17.87;62.08
64616;BME280;51027;42.162;24.754;2023-04-30T07:39:38;99509.53;;;18.17;61.12
64616;BME280;51027;42.162;24.754;2023-04-30T07:42:04;99504.03;;;18.55;59.80
64616;BME280;51027;42.162;24.754;2023-04-30T07:44:30;99512.59;;;18.23;58.10
64616;BME280;51027;42.162;24.754;2023-04-30T07:46:56;99509.75;;;17.90;58.29
64616;BME280;51027;42.162;24.754;2023-04-30T07:49:21;99492.72;;;18.75;56.91
64616;BME280;51027;42.162;24.754;2023-04-30T07:51:47;99442.97;;;18.39;57.10
64616;BME280;51027;42.162;24.754;2023-04-30T07:54:12;99509.72;;;19.32;56.20
64616;BME280;51027;42.162;24.754;2023-04-30T07:56:38;99505.50;;;19.51;54.95
64616;BME280;51027;42.162;24.754;2023-04-30T07:59:04;99506.94;;;19.44;55.44
64616;BME280;51027;42.162;24.754;2023-04-30T08:01:29;99496.38;;;19.54;54.49
64616;BME280;51027;42.162;24.754;2023-04-30T08:03:55;99501.84;;;19.86;54.23
64616;BME280;51027;42.162;24.754;2023-04-30T08:06:20;99504.66;;;19.84;54.81
64616;BME280;51027;42.162;24.754;2023-04-30T08:08:46;99507.44;;;19.94;53.72
64616;BME280;51027;42.162;24.754;2023-04-30T08:11:12;99492.84;;;20.30;53.68
64616;BME280;51027;42.162;24.754;2023-04-30T08:13:37;99494.59;;;20.20;53.07
64616;BME280;51027;42.162;24.754;2023-04-30T08:16:03;99497.81;;;20.03;52.17
64616;BME280;51027;42.162;24.754;2023-04-30T08:18:29;99504.78;;;20.26;51.08
64616;BME280;51027;42.162;24.754;2023-04-30T08:20:56;99494.56;;;20.75;49.26
64616;BME280;51027;42.162;24.754;2023-04-30T08:23:21;99431.25;;;20.53;50.09
64616;BME280;51027;42.162;24.754;2023-04-30T08:25:47;99476.75;;;20.74;49.16
64616;BME280;51027;42.162;24.754;2023-04-30T08:28:12;99493.56;;;20.96;49.49
64616;BME280;51027;42.162;24.754;2023-04-30T08:30:38;99491.53;;;20.89;48.49
64616;BME280;51027;42.162;24.754;2023-04-30T08:33:04;99478.94;;;21.00;48.41
64616;BME280;51027;42.162;24.754;2023-04-30T08:35:29;99474.34;;;20.91;47.93
64616;BME280;51027;42.162;24.754;2023-04-30T08:37:54;99470.03;;;21.21;48.40
64616;BME280;51027;42.162;24.754;2023-04-30T08:40:20;99483.72;;;20.33;48.40
64616;BME280;51027;42.162;24.754;2023-04-30T08:42:56;99477.03;;;20.70;48.28
64616;BME280;51027;42.162;24.754;2023-04-30T08:45:25;99475.94;;;21.36;47.57
64616;BME280;51027;42.162;24.754;2023-04-30T08:47:51;99471.31;;;21.47;48.12
64616;BME280;51027;42.162;24.754;2023-04-30T08:50:16;99454.81;;;21.52;46.13
64616;BME280;51027;42.162;24.754;2023-04-30T08:52:42;99477.22;;;21.81;46.70
64616;BME280;51027;42.162;24.754;2023-04-30T08:55:08;99476.47;;;22.20;44.64
64616;BME280;51027;42.162;24.754;2023-04-30T08:57:35;99472.59;;;22.03;44.80
64616;BME280;51027;42.162;24.754;2023-04-30T09:00:03;99467.34;;;21.82;44.51
64616;BME280;51027;42.162;24.754;2023-04-30T09:02:31;99459.66;;;22.27;44.02
64616;BME280;51027;42.162;24.754;2023-04-30T09:04:57;99457.28;;;22.24;44.30
64616;BME280;51027;42.162;24.754;2023-04-30T09:07:23;99458.41;;;22.31;42.69
64616;BME280;51027;42.162;24.754;2023-04-30T09:09:51;99457.97;;;22.17;42.03
64616;BME280;51027;42.162;24.754;2023-04-30T09:12:17;99446.41;;;22.45;42.23
64616;BME280;51027;42.162;24.754;2023-04-30T09:15:02;99451.88;;;22.82;41.86
64616;BME280;51027;42.162;24.754;2023-04-30T09:17:29;99448.50;;;22.99;39.66
64616;BME280;51027;42.162;24.754;2023-04-30T09:20:05;99454.06;;;23.25;39.84
64616;BME280;51027;42.162;24.754;2023-04-30T09:22:31;99442.94;;;23.20;40.00
64616;BME280;51027;42.162;24.754;2023-04-30T09:24:56;99440.56;;;23.45;39.71
64616;BME280;51027;42.162;24.754;2023-04-30T09:27:22;99447.34;;;22.83;40.48
64616;BME280;51027;42.162;24.754;2023-04-30T09:29:48;99442.47;;;22.30;41.77
64616;BME280;51027;42.162;24.754;2023-04-30T09:32:13;99424.94;;;21.56;42.17
64616;BME280;51027;42.162;24.754;2023-04-30T09:34:39;99437.50;;;21.25;42.95
64616;BME280;51027;42.162;24.754;2023-04-30T09:37:05;99430.97;;;21.49;41.16
64616;BME280;51027;42.162;24.754;2023-04-30T09:39:32;99432.34;;;21.43;41.47
64616;BME280;51027;42.162;24.754;2023-04-30T09:42:10;99429.31;;;21.58;42.19
64616;BME280;51027;42.162;24.754;2023-04-30T09:44:37;99427.38;;;21.69;42.62
64616;BME280;51027;42.162;24.754;2023-04-30T09:47:03;99419.25;;;22.67;39.68
64616;BME280;51027;42.162;24.754;2023-04-30T09:49:29;99414.59;;;22.89;38.99
64616;BME280;51027;42.162;24.754;2023-04-30T09:51:58;99414.72;;;22.00;38.70
64616;BME280;51027;42.162;24.754;2023-04-30T09:54:28;99414.25;;;21.76;40.12
64616;BME280;51027;42.162;24.754;2023-04-30T09:56:55;99420.47;;;21.86;40.27
64616;BME280;51027;42.162;24.754;2023-04-30T09:59:32;99418.94;;;21.93;40.12
64616;BME280;51027;42.162;24.754;2023-04-30T10:02:01;99388.22;;;21.38;40.48
64616;BME280;51027;42.162;24.754;2023-04-30T10:04:41;99408.56;;;21.19;40.17
64616;BME280;51027;42.162;24.754;2023-04-30T10:07:19;99410.50;;;21.38;41.31
64616;BME280;51027;42.162;24.754;2023-04-30T10:09:57;99423.84;;;21.69;41.40
64616;BME280;51027;42.162;24.754;2023-04-30T10:12:26;99405.00;;;21.40;41.42
64616;BME280;51027;42.162;24.754;2023-04-30T10:14:58;99404.34;;;21.57;41.12
64616;BME280;51027;42.162;24.754;2023-04-30T10:17:26;99402.81;;;21.74;41.60
64616;BME280;51027;42.162;24.754;2023-04-30T10:19:56;99375.44;;;21.61;41.30
64616;BME280;51027;42.162;24.754;2023-04-30T10:22:23;99387.88;;;21.81;42.64
64616;BME280;51027;42.162;24.754;2023-04-30T10:24:49;99379.28;;;21.77;41.14
64616;BME280;51027;42.162;24.754;2023-04-30T10:27:15;99383.16;;;21.54;42.62
64616;BME280;51027;42.162;24.754;2023-04-30T10:29:42;99386.81;;;21.43;41.38
64616;BME280;51027;42.162;24.754;2023-04-30T10:32:10;99387.25;;;21.48;42.92
64616;BME280;51027;42.162;24.754;2023-04-30T10:35:02;99391.81;;;21.58;42.18
64616;BME280;51027;42.162;24.754;2023-04-30T10:37:43;99389.59;;;21.92;41.57
64616;BME280;51027;42.162;24.754;2023-04-30T10:40:10;99382.16;;;22.34;41.29
64616;BME280;51027;42.162;24.754;2023-04-30T10:42:36;99388.78;;;23.43;40.30
64616;BME280;51027;42.162;24.754;2023-04-30T10:45:02;99384.91;;;23.55;38.96
64616;BME280;51027;42.162;24.754;2023-04-30T10:47:30;99377.03;;;22.69;40.28
64616;BME280;51027;42.162;24.754;2023-04-30T10:50:08;99362.47;;;22.62;40.84
64616;BME280;51027;42.162;24.754;2023-04-30T10:52:33;99385.69;;;22.34;41.08
64616;BME280;51027;42.162;24.754;2023-04-30T10:55:06;99373.06;;;21.96;40.81
64616;BME280;51027;42.162;24.754;2023-04-30T10:57:39;99375.03;;;21.75;41.35
64616;BME280;51027;42.162;24.754;2023-04-30T11:02:54;99378.31;;;21.88;41.12
64616;BME280;51027;42.162;24.754;2023-04-30T11:05:20;99372.53;;;22.02;42.06
64616;BME280;51027;42.162;24.754;2023-04-30T11:08:04;99368.03;;;22.22;41.90
64616;BME280;51027;42.162;24.754;2023-04-30T11:10:34;99363.16;;;21.58;41.49
64616;BME280;51027;42.162;24.754;2023-04-30T11:13:04;99362.63;;;21.93;42.21
64616;BME280;51027;42.162;24.754;2023-04-30T11:15:39;99363.75;;;21.81;41.23
64616;BME280;51027;42.162;24.754;2023-04-30T11:18:08;99369.00;;;21.33;43.24
64616;BME280;51027;42.162;24.754;2023-04-30T11:20:47;99367.47;;;21.30;42.94
64616;BME280;51027;42.162;24.754;2023-04-30T11:23:15;99359.50;;;20.88;43.64
64616;BME280;51027;42.162;24.754;2023-04-30T11:25:45;99358.94;;;21.15;43.97
64616;BME280;51027;42.162;24.754;2023-04-30T11:28:16;99361.63;;;21.75;42.66
64616;BME280;51027;42.162;24.754;2023-04-30T11:30:53;99350.56;;;22.75;41.46
64616;BME280;51027;42.162;24.754;2023-04-30T11:33:19;99348.63;;;23.41;40.94
64616;BME280;51027;42.162;24.754;2023-04-30T11:35:46;99346.72;;;23.24;40.65
64616;BME280;51027;42.162;24.754;2023-04-30T11:38:14;99339.09;;;23.74;40.66
64616;BME280;51027;42.162;24.754;2023-04-30T11:40:41;99339.88;;;23.57;39.27
64616;BME280;51027;42.162;24.754;2023-04-30T11:43:07;99325.06;;;22.98;39.29
64616;BME280;51027;42.162;24.754;2023-04-30T11:45:33;99321.59;;;23.15;40.01
64616;BME280;51027;42.162;24.754;2023-04-30T11:47:58;99343.75;;;22.99;39.42
64616;BME280;51027;42.162;24.754;2023-04-30T11:50:25;99336.84;;;22.78;39.39
64616;BME280;51027;42.162;24.754;2023-04-30T11:52:55;99331.25;;;23.63;38.56
64616;BME280;51027;42.162;24.754;2023-04-30T11:55:23;99335.41;;;23.93;38.46
64616;BME280;51027;42.162;24.754;2023-04-30T11:57:53;99335.56;;;23.92;37.39
64616;BME280;51027;42.162;24.754;2023-04-30T12:00:25;99323.66;;;24.12;37.47
64616;BME280;51027;42.162;24.754;2023-04-30T12:02:52;99311.31;;;22.64;39.04
64616;BME280;51027;42.162;24.754;2023-04-30T12:05:22;99316.34;;;22.39;39.70
64616;BME280;51027;42.162;24.754;2023-04-30T12:07:50;99311.88;;;23.60;38.57
64616;BME280;51027;42.162;24.754;2023-04-30T12:10:20;99305.88;;;23.66;37.77
64616;BME280;51027;42.162;24.754;2023-04-30T12:12:46;99308.97;;;22.88;38.42
64616;BME280;51027;42.162;24.754;2023-04-30T12:15:16;99297.56;;;22.39;39.27
64616;BME280;51027;42.162;24.754;2023-04-30T12:17:42;99293.06;;;22.11;40.38
64616;BME280;51027;42.162;24.754;2023-04-30T12:20:09;99315.78;;;21.88;40.59
64616;BME280;51027;42.162;24.754;2023-04-30T12:22:35;99300.22;;;21.52;41.42
64616;BME280;51027;42.162;24.754;2023-04-30T12:25:10;99324.94;;;21.56;41.48
64616;BME280;51027;42.162;24.754;2023-04-30T12:27:38;99322.66;;;21.42;41.99
64616;BME280;51027;42.162;24.754;2023-04-30T12:30:05;99346.94;;;20.17;56.66
64616;BME280;51027;42.162;24.754;2023-04-30T12:32:43;99369.50;;;19.26;57.21
64616;BME280;51027;42.162;24.754;2023-04-30T12:35:17;99369.63;;;18.68;68.02
64616;BME280;51027;42.162;24.754;2023-04-30T12:37:44;99382.53;;;18.39;66.45
64616;BME280;51027;42.162;24.754;2023-04-30T12:40:12;99384.25;;;18.17;68.90
64616;BME280;51027;42.162;24.754;2023-04-30T12:42:38;99335.66;;;17.41;75.42
64616;BME280;51027;42.162;24.754;2023-04-30T12:45:04;99334.88;;;17.52;85.88
64616;BME280;51027;42.162;24.754;2023-04-30T12:47:29;99343.53;;;17.67;92.13
64616;BME280;51027;42.162;24.754;2023-04-30T12:49:55;99338.84;;;17.46;85.47
64616;BME280;51027;42.162;24.754;2023-04-30T12:52:24;99327.13;;;17.49;88.25
64616;BME280;51027;42.162;24.754;2023-04-30T12:54:51;99320.97;;;17.48;88.33
64616;BME280;51027;42.162;24.754;2023-04-30T12:57:18;99316.63;;;17.35;86.40
64616;BME280;51027;42.162;24.754;2023-04-30T12:59:59;99318.97;;;17.26;87.64
64616;BME280;51027;42.162;24.754;2023-04-30T13:02:28;99313.81;;;17.12;83.88
64616;BME280;51027;42.162;24.754;2023-04-30T13:04:56;99312.97;;;17.12;88.06
64616;BME280;51027;42.162;24.754;2023-04-30T13:07:21;99285.09;;;17.05;90.90
64616;BME280;51027;42.162;24.754;2023-04-30T13:09:47;99309.28;;;17.02;97.14